Time;durP1;ratioP1;P1;durP2;ratioP2;P2;SDS_P1;SDS_P2;PMS_P1;PMS_P2;Temp;Humidity;BMP_temperature;BMP_pressure;BME280_temperature;BME280_humidity;BME280_pressure;Samples;Min_cycle;Max_cycle;Signal;HPM_P1;HPM_P2
2021/03/12 00:02:15;;;;;;;9.00;2.05;;;6.30;92.50;;;;;;5005542;28;20033;-72
2021/03/12 00:04:41;;;;;;;5.28;2.17;;;6.30;92.60;;;;;;5003773;28;20018;-71
2021/03/12 00:07:07;;;;;;;9.90;1.95;;;6.30;92.70;;;;;;5003612;28;20058;-71
2021/03/12 00:09:32;;;;;;;10.27;1.67;;;6.30;92.60;;;;;;5002791;28;20087;-71
2021/03/12 00:11:58;;;;;;;4.90;1.50;;;6.40;92.70;;;;;;5003819;28;20044;-71
2021/03/12 00:14:24;;;;;;;5.63;1.85;;;6.30;92.70;;;;;;5004867;28;20026;-72
2021/03/12 00:16:49;;;;;;;5.22;1.30;;;6.30;92.60;;;;;;5005491;28;20323;-71
2021/03/12 00:19:15;;;;;;;7.07;1.50;;;6.30;92.40;;;;;;5006058;28;20021;-71
2021/03/12 00:21:41;;;;;;;6.60;1.63;;;6.30;92.20;;;;;;5007418;28;20471;-71
2021/03/12 00:24:08;;;;;;;5.93;1.55;;;6.30;92.30;;;;;;5007224;28;20495;-71
2021/03/12 00:26:34;;;;;;;5.82;1.65;;;6.30;92.70;;;;;;5003639;28;20030;-71
2021/03/12 00:28:59;;;;;;;5.45;0.90;;;6.30;91.90;;;;;;5008011;28;20049;-71
2021/03/12 00:31:25;;;;;;;4.53;0.80;;;6.30;91.90;;;;;;5010641;28;20040;-71
2021/03/12 00:33:51;;;;;;;8.15;1.73;;;6.40;91.90;;;;;;5013685;28;20398;-71
2021/03/12 00:36:16;;;;;;;5.45;1.40;;;6.40;91.90;;;;;;5014357;28;20025;-71
2021/03/12 00:38:42;;;;;;;5.65;1.00;;;6.40;91.70;;;;;;5012202;28;20386;-71
2021/03/12 00:41:08;;;;;;;5.22;1.10;;;6.40;92.10;;;;;;5014568;28;20064;-73
2021/03/12 00:43:37;;;;;;;3.58;0.90;;;6.40;91.90;;;;;;5013936;28;20033;-71
2021/03/12 00:46:06;;;;;;;4.90;0.98;;;6.40;91.80;;;;;;5012489;28;20476;-71
2021/03/12 00:48:32;;;;;;;7.22;1.35;;;6.40;91.90;;;;;;5020372;28;20125;-70
2021/03/12 00:50:58;;;;;;;2.40;1.20;;;6.40;92.10;;;;;;5015474;28;20698;-72
2021/03/12 00:53:25;;;;;;;6.88;1.08;;;6.40;92.10;;;;;;5013686;28;20047;-72
2021/03/12 00:55:51;;;;;;;3.03;0.90;;;6.40;91.90;;;;;;5012472;28;20061;-71
2021/03/12 00:58:17;;;;;;;5.60;1.20;;;6.40;92.00;;;;;;5013599;28;20053;-71
2021/03/12 01:00:43;;;;;;;6.20;1.08;;;6.30;92.00;;;;;;5012478;28;20033;-71
2021/03/12 01:03:11;;;;;;;3.53;1.15;;;6.30;92.20;;;;;;5013461;28;20079;-71
2021/03/12 01:05:38;;;;;;;6.57;2.50;;;6.30;91.70;;;;;;5013886;28;20029;-71
2021/03/12 01:08:04;;;;;;;9.13;1.85;;;6.30;91.70;;;;;;5013884;28;20084;-71
2021/03/12 01:10:30;;;;;;;6.78;1.08;;;6.30;92.10;;;;;;5013388;28;20120;-70
2021/03/12 01:12:55;;;;;;;5.40;1.17;;;6.30;92.00;;;;;;5015286;28;20105;-71
2021/03/12 01:15:25;;;;;;;7.90;1.10;;;6.30;92.20;;;;;;5020959;28;20025;-71
2021/03/12 01:17:51;;;;;;;10.15;1.45;;;6.30;91.70;;;;;;5011904;28;20480;-71
2021/03/12 01:20:20;;;;;;;6.40;1.63;;;6.40;91.90;;;;;;5017698;28;20022;-71
2021/03/12 01:22:47;;;;;;;6.32;1.40;;;6.30;91.90;;;;;;5022229;28;20030;-71
2021/03/12 01:25:18;;;;;;;5.45;1.40;;;6.30;92.30;;;;;;5013781;28;20037;-70
2021/03/12 01:27:44;;;;;;;;;;;6.20;92.20;;;;;;5012507;28;20480;-70
2021/03/12 01:30:13;;;;;;;4.28;1.10;;;6.20;92.30;;;;;;5013947;28;19917;-70
2021/03/12 01:32:38;;;;;;;5.05;1.30;;;6.20;92.10;;;;;;5011736;28;20215;-72
2021/03/12 01:35:05;;;;;;;9.93;2.63;;;6.30;92.30;;;;;;5012949;28;20420;-72
2021/03/12 01:37:30;;;;;;;5.15;1.42;;;6.30;92.10;;;;;;5013271;28;20030;-72
2021/03/12 01:39:56;;;;;;;4.82;1.50;;;6.30;91.40;;;;;;5013981;28;20037;-72
2021/03/12 01:42:22;;;;;;;4.65;1.20;;;6.30;91.60;;;;;;5012533;28;20068;-72
2021/03/12 01:44:48;;;;;;;8.48;1.55;;;6.30;91.20;;;;;;5008776;28;20034;-72
2021/03/12 01:47:14;;;;;;;5.68;1.17;;;6.30;91.40;;;;;;5008948;28;20042;-72
2021/03/12 01:49:39;;;;;;;6.63;1.60;;;6.20;91.90;;;;;;5010426;28;20022;-72
2021/03/12 01:52:06;;;;;;;6.00;1.30;;;6.20;91.50;;;;;;5010033;28;20036;-72
2021/03/12 01:54:34;;;;;;;9.30;1.60;;;6.30;91.40;;;;;;5009260;28;20111;-72
2021/03/12 01:57:02;;;;;;;8.57;1.70;;;6.30;91.20;;;;;;5008935;28;20026;-72
2021/03/12 01:59:28;;;;;;;16.08;2.15;;;6.30;91.10;;;;;;5008951;28;20112;-71
2021/03/12 02:01:54;;;;;;;5.90;1.55;;;6.30;91.20;;;;;;5009995;28;20113;-70
2021/03/12 02:04:19;;;;;;;5.43;2.03;;;6.20;91.60;;;;;;5007096;28;20399;-70
2021/03/12 02:06:45;;;;;;;7.45;1.90;;;6.20;91.60;;;;;;5008637;28;20034;-72
2021/03/12 02:09:13;;;;;;;6.50;1.70;;;6.20;91.30;;;;;;5009587;28;20435;-73
2021/03/12 02:11:40;;;;;;;8.80;2.28;;;6.30;91.50;;;;;;5010814;28;20029;-70
2021/03/12 02:14:16;;;;;;;9.60;2.10;;;6.30;91.40;;;;;;5009488;28;20513;-72
2021/03/12 02:16:50;;;;;;;7.28;1.38;;;6.20;91.60;;;;;;5007498;28;20091;-72
2021/03/12 02:19:48;;;;;;;9.70;2.85;;;6.20;91.40;;;;;;5009538;28;20060;-71
2021/03/12 02:22:16;;;;;;;10.32;1.92;;;6.20;91.50;;;;;;5007928;28;20026;-72
2021/03/12 02:24:52;;;;;;;10.63;2.13;;;6.20;91.40;;;;;;5007426;28;20033;-72
2021/03/12 02:27:20;;;;;;;13.30;2.22;;;6.30;91.10;;;;;;5013944;28;20034;-72
2021/03/12 02:29:49;;;;;;;10.52;1.52;;;6.30;91.70;;;;;;5008678;28;20045;-72
2021/03/12 02:32:25;;;;;;;9.82;2.42;;;6.30;91.20;;;;;;5010091;28;20033;-72
2021/03/12 02:34:52;;;;;;;8.27;1.60;;;6.30;91.00;;;;;;5009491;28;20092;-73
2021/03/12 02:37:20;;;;;;;22.85;4.47;;;6.30;91.30;;;;;;5010842;28;20054;-72
2021/03/12 02:39:51;;;;;;;7.80;1.70;;;6.30;91.10;;;;;;5009345;28;20487;-72
2021/03/12 02:42:19;;;;;;;10.13;2.07;;;6.40;91.60;;;;;;5009565;28;20037;-72
2021/03/12 02:44:46;;;;;;;9.75;1.90;;;6.30;91.50;;;;;;5016506;28;20284;-72
2021/03/12 02:47:18;;;;;;;9.70;2.30;;;6.30;91.60;;;;;;5008114;28;20029;-71
2021/03/12 02:49:46;;;;;;;13.48;3.05;;;6.30;91.30;;;;;;5014597;28;20031;-71
2021/03/12 02:52:13;;;;;;;9.02;2.10;;;6.30;91.30;;;;;;5014246;28;20026;-71
2021/03/12 02:54:39;;;;;;;12.93;2.67;;;6.30;91.50;;;;;;5008873;28;20026;-71
2021/03/12 02:57:05;;;;;;;9.93;2.67;;;6.30;91.90;;;;;;5009107;28;20037;-70
2021/03/12 02:59:34;;;;;;;9.65;2.55;;;6.30;92.00;;;;;;5009354;28;20102;-71
2021/03/12 03:02:01;;;;;;;9.07;2.55;;;6.30;92.20;;;;;;5010392;28;20113;-71
2021/03/12 03:04:28;;;;;;;13.88;3.05;;;6.30;91.60;;;;;;5009751;28;20025;-71
2021/03/12 03:06:55;;;;;;;14.00;3.15;;;6.30;91.80;;;;;;5008296;28;20041;-71
2021/03/12 03:09:23;;;;;;;17.90;3.78;;;6.40;92.20;;;;;;5010255;28;20034;-70
2021/03/12 03:11:50;;;;;;;15.80;3.63;;;6.40;91.70;;;;;;5006762;28;20022;-71
2021/03/12 03:14:19;;;;;;;13.70;3.38;;;6.40;91.70;;;;;;5009121;28;20025;-71
2021/03/12 03:16:47;;;;;;;10.95;2.88;;;6.40;91.40;;;;;;5010071;28;20057;-72
2021/03/12 03:19:15;;;;;;;15.90;4.75;;;6.40;91.80;;;;;;5009917;28;20324;-72
2021/03/12 03:21:42;;;;;;;11.95;3.20;;;6.30;92.50;;;;;;5008723;28;20040;-71
2021/03/12 03:24:09;;;;;;;13.27;3.65;;;6.40;92.40;;;;;;5007857;28;20057;-71
2021/03/12 03:26:36;;;;;;;12.77;3.80;;;6.40;92.20;;;;;;5008573;28;20022;-72
2021/03/12 03:29:03;;;;;;;12.30;3.33;;;6.40;92.10;;;;;;5007628;28;20036;-72
2021/03/12 03:31:28;;;;;;;14.82;3.50;;;6.40;92.00;;;;;;5008909;28;20395;-71
2021/03/12 03:33:55;;;;;;;15.77;3.63;;;6.40;92.30;;;;;;5008057;28;20033;-71
2021/03/12 03:36:20;;;;;;;13.90;3.35;;;6.30;92.30;;;;;;5008079;28;20061;-71
2021/03/12 03:38:46;;;;;;;15.95;3.60;;;6.40;92.30;;;;;;5008825;28;20077;-71
2021/03/12 03:41:16;;;;;;;16.23;4.10;;;6.40;92.30;;;;;;5008309;28;20026;-71
2021/03/12 03:43:47;;;;;;;11.50;3.53;;;6.40;92.40;;;;;;5008225;28;20279;-71
2021/03/12 03:46:15;;;;;;;14.40;3.92;;;6.40;92.10;;;;;;5008447;28;20438;-71
2021/03/12 03:48:42;;;;;;;15.02;3.60;;;6.40;91.90;;;;;;5006578;28;20021;-71
2021/03/12 03:51:10;;;;;;;20.55;3.42;;;6.40;91.70;;;;;;5007935;28;20037;-72
2021/03/12 03:53:38;;;;;;;21.23;3.88;;;6.40;91.60;;;;;;5006823;28;20116;-71
2021/03/12 03:56:05;;;;;;;16.10;3.55;;;6.40;91.40;;;;;;5013318;28;20042;-71
2021/03/12 03:58:33;;;;;;;16.67;3.75;;;6.40;91.20;;;;;;5007873;28;20022;-71
2021/03/12 04:01:00;;;;;;;15.50;3.50;;;6.50;91.00;;;;;;5006938;28;20037;-71
2021/03/12 04:03:26;;;;;;;14.40;3.80;;;6.50;90.50;;;;;;5006029;28;20037;-71
2021/03/12 04:05:57;;;;;;;11.57;3.60;;;6.50;90.80;;;;;;5007729;28;20030;-71
2021/03/12 04:08:24;;;;;;;10.70;3.30;;;6.60;90.20;;;;;;5006276;28;20025;-72
2021/03/12 04:10:56;;;;;;;10.85;3.30;;;6.50;90.40;;;;;;5008912;28;20030;-72
2021/03/12 04:13:23;;;;;;;20.70;3.80;;;6.50;90.40;;;;;;5011082;28;20569;-71
2021/03/12 04:15:49;;;;;;;11.45;2.88;;;6.50;90.80;;;;;;4991400;28;20439;-71
2021/03/12 04:18:15;;;;;;;13.02;3.70;;;6.50;90.80;;;;;;5006479;28;20030;-71
2021/03/12 04:20:45;;;;;;;15.27;3.05;;;6.50;89.20;;;;;;5016891;28;20055;-71
2021/03/12 04:23:11;;;;;;;13.73;4.45;;;6.50;89.70;;;;;;5009624;28;20034;-70
2021/03/12 04:25:38;;;;;;;11.65;3.45;;;6.50;89.60;;;;;;5008470;28;20041;-71
2021/03/12 04:28:04;;;;;;;14.68;3.15;;;6.50;88.70;;;;;;5007373;28;20714;-71
2021/03/12 04:30:30;;;;;;;17.60;3.42;;;6.60;89.10;;;;;;5008798;28;20038;-71
2021/03/12 04:32:56;;;;;;;20.23;3.33;;;6.60;88.50;;;;;;5009074;28;20398;-72
2021/03/12 04:35:22;;;;;;;13.52;3.08;;;6.60;88.80;;;;;;5009419;28;20026;-70
2021/03/12 04:37:48;;;;;;;14.98;3.92;;;6.60;88.10;;;;;;5008566;28;20028;-72
2021/03/12 04:40:15;;;;;;;12.18;3.08;;;6.60;88.50;;;;;;5009514;28;20076;-71
2021/03/12 04:42:46;;;;;;;12.68;2.75;;;6.50;89.20;;;;;;5009275;28;20121;-71
2021/03/12 04:45:12;;;;;;;12.70;3.15;;;6.60;89.30;;;;;;5008471;28;20034;-71
2021/03/12 04:47:39;;;;;;;12.18;3.13;;;6.50;88.30;;;;;;5009205;28;20030;-71
2021/03/12 04:50:09;;;;;;;16.30;3.90;;;6.50;89.60;;;;;;5008328;28;20034;-71
2021/03/12 04:52:37;;;;;;;20.23;3.40;;;6.50;90.00;;;;;;5008213;28;20026;-71
2021/03/12 04:55:03;;;;;;;16.35;3.20;;;6.50;88.00;;;;;;5008753;28;20030;-72
2021/03/12 04:57:29;;;;;;;16.58;3.45;;;6.50;89.40;;;;;;5007619;28;20034;-71
2021/03/12 04:59:58;;;;;;;14.65;3.10;;;6.50;87.90;;;;;;5008124;28;20419;-71
2021/03/12 05:02:24;;;;;;;13.40;3.25;;;6.50;88.30;;;;;;5007326;28;20037;-72
2021/03/12 05:04:51;;;;;;;10.55;2.90;;;6.50;86.90;;;;;;5009655;28;20491;-72
2021/03/12 05:07:21;;;;;;;14.73;3.70;;;6.50;87.90;;;;;;5009049;28;20026;-71
2021/03/12 05:09:47;;;;;;;14.95;2.97;;;6.50;89.20;;;;;;5005862;28;20068;-72
2021/03/12 05:12:14;;;;;;;11.82;2.53;;;6.50;86.60;;;;;;4991564;28;20877;-72
2021/03/12 05:14:40;;;;;;;13.93;3.03;;;6.50;88.50;;;;;;5006703;28;20030;-71
2021/03/12 05:17:06;;;;;;;20.08;3.20;;;6.50;89.00;;;;;;5005109;28;20029;-71
2021/03/12 05:19:31;;;;;;;12.48;2.60;;;6.40;87.70;;;;;;5010309;28;20129;-71
2021/03/12 05:21:58;;;;;;;20.85;3.38;;;6.40;87.30;;;;;;5011493;28;20113;-71
2021/03/12 05:24:27;;;;;;;11.05;2.85;;;6.40;87.30;;;;;;5012265;28;20030;-71
2021/03/12 05:26:53;;;;;;;14.88;2.92;;;6.40;87.30;;;;;;5011256;28;20125;-71
2021/03/12 05:29:19;;;;;;;18.33;2.92;;;6.40;88.40;;;;;;5009428;28;20026;-71
2021/03/12 05:31:44;;;;;;;20.13;3.97;;;6.30;87.40;;;;;;5009074;28;20403;-72
2021/03/12 05:34:10;;;;;;;19.92;3.47;;;6.30;88.40;;;;;;5010985;28;20025;-71
2021/03/12 05:36:38;;;;;;;17.75;2.55;;;6.30;89.60;;;;;;5009683;28;20089;-70
2021/03/12 05:39:05;;;;;;;11.57;2.72;;;6.30;87.30;;;;;;5010581;28;20108;-72
2021/03/12 05:41:32;;;;;;;17.20;3.22;;;6.30;87.50;;;;;;5011215;28;20048;-71
2021/03/12 05:44:02;;;;;;;11.25;3.22;;;6.40;86.60;;;;;;5010584;28;20033;-71
2021/03/12 05:46:28;;;;;;;16.45;4.32;;;6.40;88.50;;;;;;5010878;28;20034;-71
2021/03/12 05:48:54;;;;;;;16.73;3.03;;;6.30;88.30;;;;;;5008661;28;20097;-70
2021/03/12 05:51:21;;;;;;;15.23;2.47;;;6.30;88.30;;;;;;5048916;23;20053;-66
2021/03/12 05:53:46;;;;;;;17.42;2.97;;;6.30;89.60;;;;;;5030869;28;20043;-66
2021/03/12 05:56:13;;;;;;;13.07;3.28;;;6.30;88.20;;;;;;5031237;28;20029;-66
2021/03/12 05:58:39;;;;;;;13.68;2.80;;;6.30;87.50;;;;;;5029459;28;20096;-66
2021/03/12 06:01:04;;;;;;;16.13;3.03;;;6.40;86.10;;;;;;5028325;28;20029;-66
2021/03/12 06:03:30;;;;;;;15.15;3.13;;;6.30;87.20;;;;;;5030011;28;20028;-66
2021/03/12 06:05:56;;;;;;;13.10;2.53;;;6.30;86.50;;;;;;5031333;28;20021;-66
2021/03/12 06:08:21;;;;;;;10.05;2.70;;;6.30;86.90;;;;;;5028585;28;20041;-66
2021/03/12 06:10:49;;;;;;;20.77;4.18;;;6.30;88.30;;;;;;5029377;28;20207;-67
2021/03/12 06:13:15;;;;;;;20.05;2.90;;;6.30;87.40;;;;;;5029103;28;20280;-66
2021/03/12 06:15:45;;;;;;;11.50;2.92;;;6.20;86.00;;;;;;5029640;28;20026;-67
2021/03/12 06:18:21;;;;;;;13.50;3.00;;;6.30;85.30;;;;;;5027436;28;20175;-66
2021/03/12 06:20:48;;;;;;;18.85;3.20;;;6.30;85.70;;;;;;5027692;28;20044;-66
2021/03/12 06:23:38;;;;;;;28.23;4.53;;;6.30;85.80;;;;;;5022223;28;20044;-66
2021/03/12 06:26:04;;;;;;;13.35;3.00;;;6.20;85.30;;;;;;5028973;28;20442;-66
2021/03/12 06:28:31;;;;;;;13.23;2.85;;;6.20;86.30;;;;;;5027880;28;20063;-67
2021/03/12 06:30:58;;;;;;;11.18;2.40;;;6.30;86.20;;;;;;5028923;28;20033;-66
2021/03/12 06:33:24;;;;;;;13.15;2.92;;;6.30;86.60;;;;;;5028416;28;20029;-66
2021/03/12 06:35:50;;;;;;;11.60;2.58;;;6.20;87.20;;;;;;5029734;28;20171;-66
2021/03/12 06:38:16;;;;;;;15.35;2.97;;;6.20;87.70;;;;;;5029920;28;20489;-66
2021/03/12 06:40:41;;;;;;;10.82;2.85;;;6.20;86.50;;;;;;5027020;28;20040;-66
2021/03/12 06:43:13;;;;;;;13.07;2.75;;;6.30;85.40;;;;;;5029622;28;20034;-66
2021/03/12 06:45:50;;;;;;;23.45;4.03;;;6.30;86.50;;;;;;5029328;28;20061;-66
2021/03/12 06:48:29;;;;;;;12.43;3.20;;;6.30;87.20;;;;;;5028969;28;20034;-66
2021/03/12 06:51:00;;;;;;;14.30;3.25;;;6.30;85.80;;;;;;5010976;28;20049;-66
2021/03/12 06:53:46;;;;;;;10.35;2.80;;;6.40;86.30;;;;;;5027007;28;20029;-66
2021/03/12 06:56:27;;;;;;;13.40;2.70;;;6.30;86.50;;;;;;5029905;28;20028;-66
2021/03/12 06:59:03;;;;;;;11.70;2.88;;;6.40;86.10;;;;;;5029839;28;20036;-66
2021/03/12 07:01:29;;;;;;;24.13;3.70;;;6.40;86.60;;;;;;5026479;28;20029;-65
2021/03/12 07:04:09;;;;;;;15.05;2.85;;;6.40;86.50;;;;;;5029963;28;20076;-66
2021/03/12 07:06:45;;;;;;;8.88;2.33;;;6.50;84.60;;;;;;5027823;28;20061;-65
2021/03/12 07:09:11;;;;;;;11.07;2.85;;;6.40;84.50;;;;;;5024615;28;20034;-66
2021/03/12 07:11:37;;;;;;;16.98;2.83;;;6.40;85.80;;;;;;5029329;28;20062;-69
2021/03/12 07:14:03;;;;;;;16.45;3.00;;;6.30;85.90;;;;;;5025863;28;20044;-66
2021/03/12 07:16:30;;;;;;;15.82;2.50;;;6.40;84.90;;;;;;5027362;28;20089;-66
2021/03/12 07:18:56;;;;;;;12.00;2.17;;;6.40;84.50;;;;;;5028599;28;20470;-67
2021/03/12 07:21:25;;;;;;;11.73;2.25;;;6.50;83.80;;;;;;5023523;28;20465;-67
2021/03/12 07:24:02;;;;;;;11.52;2.30;;;6.40;84.70;;;;;;5026619;28;20116;-66
2021/03/12 07:26:44;;;;;;;11.93;2.60;;;6.40;85.10;;;;;;5028138;28;20025;-66
2021/03/12 07:29:12;;;;;;;13.40;2.50;;;6.40;84.50;;;;;;5022552;28;20091;-66
2021/03/12 07:31:40;;;;;;;17.10;3.28;;;6.40;84.90;;;;;;5024256;28;20092;-66
2021/03/12 07:34:15;;;;;;;15.75;2.78;;;6.50;83.60;;;;;;5028005;28;20041;-67
2021/03/12 07:36:47;;;;;;;13.25;2.53;;;6.50;85.00;;;;;;5026471;28;20033;-67
2021/03/12 07:39:19;;;;;;;16.92;2.50;;;6.50;84.90;;;;;;5027302;28;20064;-67
2021/03/12 07:41:46;;;;;;;11.93;3.05;;;6.50;84.60;;;;;;5026523;28;20502;-66
2021/03/12 07:44:18;;;;;;;13.57;3.20;;;6.50;84.40;;;;;;5026263;28;20035;-66
2021/03/12 07:46:54;;;;;;;15.88;2.80;;;6.60;83.20;;;;;;5028275;28;20486;-67
2021/03/12 07:49:28;;;;;;;13.35;2.58;;;6.50;84.60;;;;;;5027216;28;20041;-66
2021/03/12 07:51:55;;;;;;;8.40;1.77;;;6.50;85.30;;;;;;5027515;28;20029;-66
2021/03/12 07:54:45;;;;;;;10.77;2.47;;;6.50;84.50;;;;;;5027285;28;20163;-66
2021/03/12 07:57:12;;;;;;;12.15;2.30;;;6.50;84.70;;;;;;5028027;28;20056;-67
2021/03/12 07:59:47;;;;;;;10.00;2.17;;;6.60;84.40;;;;;;5027615;28;20032;-66
2021/03/12 08:02:13;;;;;;;10.00;2.40;;;6.60;84.20;;;;;;5023793;28;20597;-66
2021/03/12 08:04:40;;;;;;;10.48;1.95;;;6.60;83.80;;;;;;5026724;28;20044;-66
2021/03/12 08:07:20;;;;;;;12.60;2.72;;;6.60;84.00;;;;;;5024118;28;20502;-67
2021/03/12 08:09:56;;;;;;;12.77;2.08;;;6.60;84.30;;;;;;5029362;28;20029;-67
2021/03/12 08:12:30;;;;;;;12.65;2.35;;;6.70;85.10;;;;;;5027683;28;20108;-66
2021/03/12 08:15:11;;;;;;;14.23;2.15;;;6.60;84.70;;;;;;5028103;28;20037;-66
2021/03/12 08:17:37;;;;;;;12.18;2.50;;;6.70;84.60;;;;;;5026781;28;20036;-67
2021/03/12 08:20:36;;;;;;;14.10;2.15;;;6.70;84.80;;;;;;5027855;28;20033;-67
2021/03/12 08:23:04;;;;;;;10.18;2.30;;;6.80;84.10;;;;;;5019117;28;20045;-67
2021/03/12 08:25:32;;;;;;;12.13;1.95;;;6.80;84.30;;;;;;5026963;28;20111;-67
2021/03/12 08:28:18;;;;;;;19.38;4.32;;;6.80;84.70;;;;;;5023603;28;20037;-67
2021/03/12 08:30:47;;;;;;;13.88;3.22;;;6.80;84.00;;;;;;5020890;28;20037;-67
2021/03/12 08:33:21;;;;;;;7.28;1.90;;;7.00;82.00;;;;;;5026221;28;20118;-67
2021/03/12 08:35:51;;;;;;;15.40;3.13;;;6.90;83.60;;;;;;5026266;28;20033;-67
2021/03/12 08:38:24;;;;;;;11.57;1.77;;;6.90;84.10;;;;;;5024805;28;20025;-67
2021/03/12 08:41:14;;;;;;;8.77;1.92;;;6.90;83.20;;;;;;5025615;28;20033;-67
2021/03/12 08:43:54;;;;;;;11.35;2.35;;;7.00;82.50;;;;;;5024421;28;20056;-67
2021/03/12 08:46:28;;;;;;;13.32;3.15;;;7.10;83.10;;;;;;5021138;28;20495;-67
2021/03/12 08:49:04;;;;;;;7.13;2.22;;;7.10;83.10;;;;;;5018047;28;20059;-67
2021/03/12 08:51:32;;;;;;;15.40;2.80;;;7.10;83.20;;;;;;5023601;28;20033;-67
2021/03/12 08:54:00;;;;;;;10.43;2.03;;;7.20;82.40;;;;;;5028322;28;20080;-67
2021/03/12 08:56:33;;;;;;;12.63;2.92;;;7.30;81.60;;;;;;5025962;28;20025;-67
2021/03/12 08:59:02;;;;;;;8.70;1.80;;;7.30;81.20;;;;;;5024443;28;20049;-68
2021/03/12 09:01:32;;;;;;;8.05;2.42;;;7.30;81.60;;;;;;5026472;28;20034;-67
2021/03/12 09:04:03;;;;;;;12.15;2.03;;;7.40;80.90;;;;;;5028200;28;20109;-67
2021/03/12 09:06:36;;;;;;;;;;;7.30;81.30;;;;;;5028727;28;20029;-67
2021/03/12 09:09:04;;;;;;;9.07;2.03;;;7.20;81.60;;;;;;5027628;28;19917;-67
2021/03/12 09:11:30;;;;;;;10.82;2.08;;;7.20;82.00;;;;;;5028133;28;20044;-67
2021/03/12 09:13:58;;;;;;;11.73;1.80;;;7.20;81.30;;;;;;5030443;28;20068;-66
2021/03/12 09:16:26;;;;;;;9.95;2.33;;;7.30;81.00;;;;;;5026816;28;20029;-66
2021/03/12 09:18:55;;;;;;;15.48;2.80;;;7.30;80.00;;;;;;5028216;28;20079;-66
2021/03/12 09:21:25;;;;;;;17.45;2.70;;;7.40;80.80;;;;;;5028371;28;20036;-66
2021/03/12 09:23:53;;;;;;;12.05;2.70;;;7.40;81.10;;;;;;5022870;28;20045;-66
2021/03/12 09:26:30;;;;;;;9.45;2.17;;;7.40;80.90;;;;;;5024661;28;20053;-67
2021/03/12 09:28:58;;;;;;;13.63;2.30;;;7.40;81.40;;;;;;5025987;28;20454;-67
2021/03/12 09:31:30;;;;;;;9.73;1.90;;;7.40;81.10;;;;;;5026089;28;20048;-67
2021/03/12 09:33:58;;;;;;;14.68;2.42;;;7.40;81.40;;;;;;5025863;28;20536;-66
2021/03/12 09:36:34;;;;;;;9.80;1.90;;;7.40;79.50;;;;;;5026299;28;20551;-66
2021/03/12 09:39:21;;;;;;;9.93;2.40;;;7.40;79.20;;;;;;5026159;28;20033;-67
2021/03/12 09:42:07;;;;;;;11.50;2.60;;;7.40;80.20;;;;;;5026757;28;20379;-67
2021/03/12 09:44:38;;;;;;;13.88;2.58;;;7.30;80.30;;;;;;5029038;28;20366;-68
2021/03/12 09:47:06;;;;;;;11.27;2.05;;;7.30;80.60;;;;;;5028656;28;20087;-68
2021/03/12 09:49:43;;;;;;;12.88;2.20;;;7.30;81.20;;;;;;5028675;28;20117;-68
2021/03/12 09:52:13;;;;;;;12.25;2.70;;;7.40;81.30;;;;;;5027760;28;20042;-68
2021/03/12 09:54:41;;;;;;;6.47;1.83;;;7.50;80.70;;;;;;5026512;28;20025;-69
2021/03/12 09:57:08;;;;;;;14.20;2.45;;;7.60;79.60;;;;;;5028328;28;20116;-70
2021/03/12 09:59:38;;;;;;;13.25;2.70;;;7.70;78.60;;;;;;5025937;28;20036;-67
2021/03/12 10:02:09;;;;;;;14.90;2.55;;;7.70;79.00;;;;;;5022593;28;20040;-70
2021/03/12 10:04:40;;;;;;;10.23;2.47;;;7.80;78.30;;;;;;5026459;28;20041;-68
2021/03/12 10:07:06;;;;;;;;;;;7.90;77.70;;;;;;5023763;28;20075;-68
2021/03/12 10:09:38;;;;;;;8.60;2.50;;;7.80;78.60;;;;;;5026287;28;19913;-67
2021/03/12 10:12:05;;;;;;;5.97;2.60;;;7.80;79.00;;;;;;5024448;28;20043;-68
2021/03/12 10:14:37;;;;;;;14.07;2.97;;;7.70;78.00;;;;;;5027127;28;20021;-68
2021/03/12 10:17:19;;;;;;;12.40;2.90;;;7.80;76.80;;;;;;5032579;28;20056;-67
2021/03/12 10:20:03;;;;;;;12.95;2.88;;;7.80;77.60;;;;;;5024957;28;20037;-68
2021/03/12 10:22:43;;;;;;;13.63;3.38;;;7.80;78.60;;;;;;5025538;28;20132;-68
2021/03/12 10:25:16;;;;;;;261.95;118.47;;;7.80;78.40;;;;;;5021807;28;20025;-67
2021/03/12 10:27:45;;;;;;;96.80;52.70;;;7.80;78.50;;;;;;5024498;28;20078;-68
2021/03/12 10:30:23;;;;;;;15.38;3.17;;;7.80;77.70;;;;;;5024247;28;20506;-67
2021/03/12 10:32:54;;;;;;;16.67;3.00;;;7.80;77.50;;;;;;5024861;28;20033;-68
2021/03/12 10:35:24;;;;;;;;;;;7.80;78.60;;;;;;5023775;28;20033;-67
2021/03/12 10:37:57;;;;;;;13.98;3.03;;;7.80;78.60;;;;;;5026062;28;19917;-68
2021/03/12 10:40:26;;;;;;;11.25;2.70;;;7.80;78.60;;;;;;5025191;28;20037;-67
2021/03/12 10:42:52;;;;;;;10.77;2.28;;;7.70;79.50;;;;;;5028955;28;20095;-66
2021/03/12 10:45:32;;;;;;;10.05;2.53;;;7.90;77.60;;;;;;5026166;28;20111;-68
2021/03/12 10:48:04;;;;;;;9.57;3.08;;;7.90;77.50;;;;;;5026973;28;20045;-68
2021/03/12 10:50:36;;;;;;;10.25;2.88;;;7.90;77.20;;;;;;5021067;28;20048;-67
2021/03/12 10:53:13;;;;;;;9.20;3.00;;;7.90;77.20;;;;;;5023924;28;20120;-68
2021/03/12 10:55:48;;;;;;;10.48;3.08;;;7.80;78.30;;;;;;5028221;28;20112;-68
2021/03/12 10:58:40;;;;;;;9.30;2.65;;;7.80;77.90;;;;;;5024730;28;20017;-69
2021/03/12 11:01:29;;;;;;;10.00;2.80;;;7.90;77.20;;;;;;5022349;28;20044;-68
2021/03/12 11:04:00;;;;;;;14.98;3.35;;;8.10;76.50;;;;;;4985828;28;20500;-68
2021/03/12 11:06:32;;;;;;;10.57;2.30;;;8.10;76.30;;;;;;4987078;28;20217;-69
2021/03/12 11:08:58;;;;;;;10.57;2.90;;;8.10;76.50;;;;;;4985287;28;20460;-68
2021/03/12 11:11:26;;;;;;;10.80;3.20;;;8.10;76.70;;;;;;4967638;28;20038;-68
2021/03/12 11:13:52;;;;;;;12.88;3.75;;;8.20;74.80;;;;;;4983452;28;20116;-68
2021/03/12 11:16:18;;;;;;;10.23;2.83;;;8.10;76.90;;;;;;4986195;28;20064;-69
2021/03/12 11:18:44;;;;;;;11.82;3.17;;;8.10;75.90;;;;;;4980813;28;20073;-68
2021/03/12 11:21:12;;;;;;;10.95;2.75;;;8.10;75.90;;;;;;4970409;28;20053;-68
2021/03/12 11:23:38;;;;;;;10.90;3.25;;;8.20;74.40;;;;;;4970362;28;20064;-68
2021/03/12 11:26:09;;;;;;;8.63;3.15;;;8.10;75.20;;;;;;4989073;28;20034;-68
2021/03/12 11:28:35;;;;;;;10.73;3.08;;;8.10;76.40;;;;;;4986892;28;20444;-68
2021/03/12 11:31:05;;;;;;;14.32;3.80;;;8.20;77.40;;;;;;4983823;28;20046;-68
2021/03/12 11:33:31;;;;;;;13.00;3.25;;;8.30;76.40;;;;;;4987452;28;20042;-68
2021/03/12 11:36:00;;;;;;;12.77;3.90;;;8.20;76.70;;;;;;4984993;28;20035;-68
2021/03/12 11:38:26;;;;;;;11.77;3.83;;;8.20;76.60;;;;;;4983664;28;20034;-68
2021/03/12 11:40:51;;;;;;;11.98;3.83;;;8.30;76.30;;;;;;4999001;28;20061;-68
2021/03/12 11:43:17;;;;;;;11.23;3.10;;;8.40;76.50;;;;;;5026750;28;20021;-68
2021/03/12 11:45:43;;;;;;;13.48;4.10;;;8.80;76.90;;;;;;5026871;28;20034;-70
2021/03/12 11:48:11;;;;;;;10.30;3.42;;;9.20;74.30;;;;;;5023189;28;20037;-68
2021/03/12 11:50:38;;;;;;;12.75;3.80;;;9.50;73.60;;;;;;5023965;28;20036;-68
2021/03/12 11:53:06;;;;;;;14.43;3.70;;;9.60;73.10;;;;;;5028269;28;20465;-68
2021/03/12 11:55:32;;;;;;;13.55;3.92;;;9.70;71.60;;;;;;5027951;28;20037;-68
2021/03/12 11:57:58;;;;;;;11.38;3.00;;;9.70;71.70;;;;;;5027634;28;20575;-68
2021/03/12 12:00:24;;;;;;;8.02;3.33;;;9.60;71.90;;;;;;5026076;28;20111;-68
2021/03/12 12:02:51;;;;;;;13.00;3.25;;;9.50;71.00;;;;;;5027409;28;20083;-68
2021/03/12 12:05:17;;;;;;;19.15;3.72;;;9.30;72.10;;;;;;5026260;28;20045;-68
2021/03/12 12:07:44;;;;;;;12.25;3.28;;;9.30;71.10;;;;;;5026223;28;20506;-68
2021/03/12 12:10:11;;;;;;;7.82;2.78;;;9.30;71.80;;;;;;5025644;28;20037;-68
2021/03/12 12:12:46;;;;;;;9.90;2.53;;;9.10;72.80;;;;;;5022768;28;20029;-67
2021/03/12 12:15:16;;;;;;;12.90;3.17;;;9.10;72.50;;;;;;5024351;28;20022;-67
2021/03/12 12:17:43;;;;;;;6.75;2.70;;;9.10;71.50;;;;;;5019883;28;20116;-68
2021/03/12 12:20:10;;;;;;;11.27;2.55;;;8.90;71.80;;;;;;5018247;28;20108;-68
2021/03/12 12:22:36;;;;;;;13.38;3.13;;;8.80;71.80;;;;;;5014492;28;20104;-67
2021/03/12 12:25:06;;;;;;;8.90;3.22;;;8.80;72.40;;;;;;5002394;28;20044;-68
2021/03/12 12:27:34;;;;;;;10.20;3.42;;;8.80;71.40;;;;;;5005113;28;20049;-68
2021/03/12 12:30:00;;;;;;;5.93;2.10;;;9.00;71.70;;;;;;5007884;28;20044;-68
2021/03/12 12:32:26;;;;;;;14.88;8.23;;;8.90;70.50;;;;;;5006525;28;20521;-67
2021/03/12 12:34:52;;;;;;;44.17;18.30;;;8.90;71.40;;;;;;5003967;28;20021;-67
2021/03/12 12:37:22;;;;;;;11.68;2.45;;;8.80;72.00;;;;;;5004306;28;20078;-67
2021/03/12 12:39:51;;;;;;;7.63;2.05;;;8.90;70.80;;;;;;5019421;28;20061;-67
2021/03/12 12:42:17;;;;;;;8.65;2.13;;;8.90;71.20;;;;;;5022811;28;20116;-68
2021/03/12 12:44:43;;;;;;;12.57;2.40;;;9.00;70.60;;;;;;5022980;28;20112;-67
2021/03/12 12:47:09;;;;;;;9.68;2.05;;;9.00;69.70;;;;;;5016504;28;20135;-67
2021/03/12 12:49:34;;;;;;;5.60;2.10;;;9.00;68.70;;;;;;5014456;28;20021;-67
2021/03/12 12:52:02;;;;;;;6.43;1.83;;;8.90;69.70;;;;;;5023016;28;20529;-66
2021/03/12 12:54:29;;;;;;;9.15;2.58;;;8.80;70.70;;;;;;5024605;28;20049;-67
2021/03/12 12:56:54;;;;;;;9.07;2.33;;;8.80;71.50;;;;;;5024744;28;20038;-67
2021/03/12 12:59:20;;;;;;;7.68;2.10;;;8.70;72.00;;;;;;5024336;28;20132;-67
2021/03/12 13:01:46;;;;;;;9.73;2.35;;;8.70;71.70;;;;;;5022293;28;20040;-67